sensor_id;sensor_type;location;lat;lon;timestamp;temperature;humidity
18444;DHT22;9350;53.176;8.194;2024-03-22T00:00:17;10.30;99.90
18444;DHT22;9350;53.176;8.194;2024-03-22T00:02:43;10.30;99.90
18444;DHT22;9350;53.176;8.194;2024-03-22T00:05:10;10.30;99.90
18444;DHT22;9350;53.176;8.194;2024-03-22T00:07:36;10.30;99.90
18444;DHT22;9350;53.176;8.194;2024-03-22T00:10:06;10.30;99.90
18444;DHT22;9350;53.176;8.194;2024-03-22T00:12:32;10.40;99.90
18444;DHT22;9350;53.176;8.194;2024-03-22T00:14:59;10.40;99.90
18444;DHT22;9350;53.176;8.194;2024-03-22T00:17:24;10.40;99.90
18444;DHT22;9350;53.176;8.194;2024-03-22T00:19:51;10.40;99.90
18444;DHT22;9350;53.176;8.194;2024-03-22T00:22:17;10.40;99.90
18444;DHT22;9350;53.176;8.194;2024-03-22T00:24:44;10.40;99.90
18444;DHT22;9350;53.176;8.194;2024-03-22T00:27:11;10.40;99.90
18444;DHT22;9350;53.176;8.194;2024-03-22T00:29:38;10.30;99.90
18444;DHT22;9350;53.176;8.194;2024-03-22T00:32:04;10.40;99.90
18444;DHT22;9350;53.176;8.194;2024-03-22T00:34:33;10.40;99.90
18444;DHT22;9350;53.176;8.194;2024-03-22T00:36:58;10.40;99.90
18444;DHT22;9350;53.176;8.194;2024-03-22T00:39:25;10.40;99.90
18444;DHT22;9350;53.176;8.194;2024-03-22T00:41:51;10.40;99.90
18444;DHT22;9350;53.176;8.194;2024-03-22T00:44:19;10.40;99.90
18444;DHT22;9350;53.176;8.194;2024-03-22T00:46:45;10.40;99.90
18444;DHT22;9350;53.176;8.194;2024-03-22T00:49:12;10.40;99.90
18444;DHT22;9350;53.176;8.194;2024-03-22T00:51:38;10.40;99.90
18444;DHT22;9350;53.176;8.194;2024-03-22T00:54:05;10.40;99.90
18444;DHT22;9350;53.176;8.194;2024-03-22T00:56:31;10.40;99.90
18444;DHT22;9350;53.176;8.194;2024-03-22T00:58:57;10.50;99.90
18444;DHT22;9350;53.176;8.194;2024-03-22T01:01:25;10.40;99.90
18444;DHT22;9350;53.176;8.194;2024-03-22T01:03:51;10.40;99.90
18444;DHT22;9350;53.176;8.194;2024-03-22T01:06:17;10.40;99.90
18444;DHT22;9350;53.176;8.194;2024-03-22T01:08:49;10.40;99.90
18444;DHT22;9350;53.176;8.194;2024-03-22T01:11:14;10.40;99.90
18444;DHT22;9350;53.176;8.194;2024-03-22T01:13:41;10.40;99.90
18444;DHT22;9350;53.176;8.194;2024-03-22T01:16:07;10.50;99.90
18444;DHT22;9350;53.176;8.194;2024-03-22T01:18:37;10.50;99.90
18444;DHT22;9350;53.176;8.194;2024-03-22T01:21:03;10.50;99.90
18444;DHT22;9350;53.176;8.194;2024-03-22T01:23:30;10.40;99.90
18444;DHT22;9350;53.176;8.194;2024-03-22T01:25:56;10.50;99.90
18444;DHT22;9350;53.176;8.194;2024-03-22T01:28:23;10.40;99.90
18444;DHT22;9350;53.176;8.194;2024-03-22T01:30:49;10.50;99.90
18444;DHT22;9350;53.176;8.194;2024-03-22T01:33:16;10.40;99.90
18444;DHT22;9350;53.176;8.194;2024-03-22T01:35:43;10.50;99.90
18444;DHT22;9350;53.176;8.194;2024-03-22T01:38:10;10.50;99.90
18444;DHT22;9350;53.176;8.194;2024-03-22T01:40:35;10.50;99.90
18444;DHT22;9350;53.176;8.194;2024-03-22T01:43:02;10.50;99.90
18444;DHT22;9350;53.176;8.194;2024-03-22T01:45:31;10.50;99.90
18444;DHT22;9350;53.176;8.194;2024-03-22T01:47:59;10.50;99.90
18444;DHT22;9350;53.176;8.194;2024-03-22T01:50:26;10.40;99.90
18444;DHT22;9350;53.176;8.194;2024-03-22T01:52:54;10.50;99.90
18444;DHT22;9350;53.176;8.194;2024-03-22T01:55:21;10.50;99.90
18444;DHT22;9350;53.176;8.194;2024-03-22T01:57:49;10.50;99.90
18444;DHT22;9350;53.176;8.194;2024-03-22T02:00:15;10.60;99.90
18444;DHT22;9350;53.176;8.194;2024-03-22T02:02:42;10.50;99.90
18444;DHT22;9350;53.176;8.194;2024-03-22T02:05:12;10.50;99.90
18444;DHT22;9350;53.176;8.194;2024-03-22T02:07:39;10.60;99.90
18444;DHT22;9350;53.176;8.194;2024-03-22T02:10:07;10.50;99.90
18444;DHT22;9350;53.176;8.194;2024-03-22T02:12:36;10.50;99.90
18444;DHT22;9350;53.176;8.194;2024-03-22T02:15:02;10.50;99.90
18444;DHT22;9350;53.176;8.194;2024-03-22T02:17:29;10.50;99.90
18444;DHT22;9350;53.176;8.194;2024-03-22T02:19:55;10.50;99.90
18444;DHT22;9350;53.176;8.194;2024-03-22T02:22:22;10.50;99.90
18444;DHT22;9350;53.176;8.194;2024-03-22T02:24:49;10.60;99.90
18444;DHT22;9350;53.176;8.194;2024-03-22T02:27:16;10.50;99.90
18444;DHT22;9350;53.176;8.194;2024-03-22T02:29:41;10.60;99.90
18444;DHT22;9350;53.176;8.194;2024-03-22T02:32:10;10.60;99.90
18444;DHT22;9350;53.176;8.194;2024-03-22T02:34:36;10.60;99.90
18444;DHT22;9350;53.176;8.194;2024-03-22T02:37:03;10.60;99.90
18444;DHT22;9350;53.176;8.194;2024-03-22T02:39:29;10.50;99.90
18444;DHT22;9350;53.176;8.194;2024-03-22T02:41:57;10.50;99.90
18444;DHT22;9350;53.176;8.194;2024-03-22T02:44:22;10.50;99.90
18444;DHT22;9350;53.176;8.194;2024-03-22T02:46:49;10.50;99.90
18444;DHT22;9350;53.176;8.194;2024-03-22T02:49:15;10.50;99.90
18444;DHT22;9350;53.176;8.194;2024-03-22T02:51:42;10.50;99.90
18444;DHT22;9350;53.176;8.194;2024-03-22T02:54:08;10.60;99.90
18444;DHT22;9350;53.176;8.194;2024-03-22T02:56:35;10.50;99.90
18444;DHT22;9350;53.176;8.194;2024-03-22T02:59:02;10.60;99.90
18444;DHT22;9350;53.176;8.194;2024-03-22T03:01:28;10.60;99.90
18444;DHT22;9350;53.176;8.194;2024-03-22T03:03:54;10.60;99.90
18444;DHT22;9350;53.176;8.194;2024-03-22T03:06:21;10.60;99.90
18444;DHT22;9350;53.176;8.194;2024-03-22T03:08:47;10.50;99.90
18444;DHT22;9350;53.176;8.194;2024-03-22T03:11:14;10.60;99.90
18444;DHT22;9350;53.176;8.194;2024-03-22T03:13:40;10.60;99.90
18444;DHT22;9350;53.176;8.194;2024-03-22T03:16:08;10.60;99.90
18444;DHT22;9350;53.176;8.194;2024-03-22T03:18:35;10.60;99.90
18444;DHT22;9350;53.176;8.194;2024-03-22T03:21:01;10.60;99.90
18444;DHT22;9350;53.176;8.194;2024-03-22T03:23:28;10.60;99.90
18444;DHT22;9350;53.176;8.194;2024-03-22T03:25:53;10.60;99.90
18444;DHT22;9350;53.176;8.194;2024-03-22T03:28:20;10.60;99.90
18444;DHT22;9350;53.176;8.194;2024-03-22T03:30:46;10.70;99.90
18444;DHT22;9350;53.176;8.194;2024-03-22T03:33:14;10.70;99.90
18444;DHT22;9350;53.176;8.194;2024-03-22T03:35:40;10.70;99.90
18444;DHT22;9350;53.176;8.194;2024-03-22T03:38:06;10.70;99.90
18444;DHT22;9350;53.176;8.194;2024-03-22T03:40:32;10.70;99.90
18444;DHT22;9350;53.176;8.194;2024-03-22T03:42:59;10.70;99.90
18444;DHT22;9350;53.176;8.194;2024-03-22T03:45:25;10.60;99.90
18444;DHT22;9350;53.176;8.194;2024-03-22T03:47:52;10.70;99.90
18444;DHT22;9350;53.176;8.194;2024-03-22T03:50:19;10.60;99.90
18444;DHT22;9350;53.176;8.194;2024-03-22T03:52:45;10.70;99.90
18444;DHT22;9350;53.176;8.194;2024-03-22T03:55:11;10.60;99.90
18444;DHT22;9350;53.176;8.194;2024-03-22T03:57:38;10.70;99.90
18444;DHT22;9350;53.176;8.194;2024-03-22T04:00:05;10.70;99.90
18444;DHT22;9350;53.176;8.194;2024-03-22T04:02:32;10.70;99.90
18444;DHT22;9350;53.176;8.194;2024-03-22T04:04:58;10.70;99.90
18444;DHT22;9350;53.176;8.194;2024-03-22T04:07:26;10.70;99.90
18444;DHT22;9350;53.176;8.194;2024-03-22T04:09:52;10.70;99.90
18444;DHT22;9350;53.176;8.194;2024-03-22T04:12:19;10.70;99.90
18444;DHT22;9350;53.176;8.194;2024-03-22T04:14:44;10.80;99.90
18444;DHT22;9350;53.176;8.194;2024-03-22T04:17:11;10.70;99.90
18444;DHT22;9350;53.176;8.194;2024-03-22T04:19:37;10.70;99.90
18444;DHT22;9350;53.176;8.194;2024-03-22T04:22:04;10.80;99.90
18444;DHT22;9350;53.176;8.194;2024-03-22T04:24:31;10.70;99.90
18444;DHT22;9350;53.176;8.194;2024-03-22T04:26:58;10.80;99.90
18444;DHT22;9350;53.176;8.194;2024-03-22T04:29:23;10.70;99.90
18444;DHT22;9350;53.176;8.194;2024-03-22T04:31:50;10.80;99.90
18444;DHT22;9350;53.176;8.194;2024-03-22T04:34:16;10.80;99.90
18444;DHT22;9350;53.176;8.194;2024-03-22T04:36:43;10.80;99.90
18444;DHT22;9350;53.176;8.194;2024-03-22T04:39:09;10.80;99.90
18444;DHT22;9350;53.176;8.194;2024-03-22T04:41:39;10.70;99.90
18444;DHT22;9350;53.176;8.194;2024-03-22T04:44:05;10.70;99.90
18444;DHT22;9350;53.176;8.194;2024-03-22T04:46:31;10.80;99.90
18444;DHT22;9350;53.176;8.194;2024-03-22T04:48:57;10.80;99.90
18444;DHT22;9350;53.176;8.194;2024-03-22T04:51:24;10.80;99.90
18444;DHT22;9350;53.176;8.194;2024-03-22T04:53:51;10.80;99.90
18444;DHT22;9350;53.176;8.194;2024-03-22T04:56:16;10.80;99.90
18444;DHT22;9350;53.176;8.194;2024-03-22T04:58:45;10.80;99.90
18444;DHT22;9350;53.176;8.194;2024-03-22T05:01:10;10.80;99.90
18444;DHT22;9350;53.176;8.194;2024-03-22T05:03:38;10.80;99.90
18444;DHT22;9350;53.176;8.194;2024-03-22T05:06:04;10.80;99.90
18444;DHT22;9350;53.176;8.194;2024-03-22T05:08:32;10.80;99.90
18444;DHT22;9350;53.176;8.194;2024-03-22T05:10:57;10.80;99.90
18444;DHT22;9350;53.176;8.194;2024-03-22T05:13:24;10.80;99.90
18444;DHT22;9350;53.176;8.194;2024-03-22T05:15:51;10.80;99.90
18444;DHT22;9350;53.176;8.194;2024-03-22T05:18:19;10.70;99.90
18444;DHT22;9350;53.176;8.194;2024-03-22T05:20:44;10.80;99.90
18444;DHT22;9350;53.176;8.194;2024-03-22T05:23:11;10.80;99.90
18444;DHT22;9350;53.176;8.194;2024-03-22T05:25:37;10.80;99.90
18444;DHT22;9350;53.176;8.194;2024-03-22T05:28:04;10.80;99.90
18444;DHT22;9350;53.176;8.194;2024-03-22T05:30:30;10.80;99.90
18444;DHT22;9350;53.176;8.194;2024-03-22T05:32:58;10.80;99.90
18444;DHT22;9350;53.176;8.194;2024-03-22T05:35:24;10.80;99.90
18444;DHT22;9350;53.176;8.194;2024-03-22T05:37:51;10.80;99.90
18444;DHT22;9350;53.176;8.194;2024-03-22T05:40:17;10.80;99.90
18444;DHT22;9350;53.176;8.194;2024-03-22T05:42:44;10.80;99.90
18444;DHT22;9350;53.176;8.194;2024-03-22T05:45:09;10.80;99.90
18444;DHT22;9350;53.176;8.194;2024-03-22T05:47:36;10.90;99.90
18444;DHT22;9350;53.176;8.194;2024-03-22T05:50:06;10.90;99.90
18444;DHT22;9350;53.176;8.194;2024-03-22T05:52:34;10.80;99.90
18444;DHT22;9350;53.176;8.194;2024-03-22T05:55:00;10.90;99.90
18444;DHT22;9350;53.176;8.194;2024-03-22T05:57:26;10.80;99.90
18444;DHT22;9350;53.176;8.194;2024-03-22T05:59:53;10.90;99.90
18444;DHT22;9350;53.176;8.194;2024-03-22T06:02:19;10.90;99.90
18444;DHT22;9350;53.176;8.194;2024-03-22T06:04:46;10.90;99.90
18444;DHT22;9350;53.176;8.194;2024-03-22T06:07:14;10.90;99.90
18444;DHT22;9350;53.176;8.194;2024-03-22T06:09:42;10.90;99.90
18444;DHT22;9350;53.176;8.194;2024-03-22T06:12:11;10.90;99.90
18444;DHT22;9350;53.176;8.194;2024-03-22T06:14:38;10.90;99.90
18444;DHT22;9350;53.176;8.194;2024-03-22T06:17:04;11.00;99.90
18444;DHT22;9350;53.176;8.194;2024-03-22T06:19:31;10.90;99.90
18444;DHT22;9350;53.176;8.194;2024-03-22T06:21:57;10.90;99.90
18444;DHT22;9350;53.176;8.194;2024-03-22T06:24:25;10.90;99.90
18444;DHT22;9350;53.176;8.194;2024-03-22T06:26:51;10.80;99.90
18444;DHT22;9350;53.176;8.194;2024-03-22T06:29:18;10.90;99.90
18444;DHT22;9350;53.176;8.194;2024-03-22T06:31:43;10.90;99.90
18444;DHT22;9350;53.176;8.194;2024-03-22T06:34:10;10.90;99.90
18444;DHT22;9350;53.176;8.194;2024-03-22T06:36:36;10.80;99.90
18444;DHT22;9350;53.176;8.194;2024-03-22T06:39:03;10.90;99.90
18444;DHT22;9350;53.176;8.194;2024-03-22T06:41:34;10.90;99.90
18444;DHT22;9350;53.176;8.194;2024-03-22T06:44:01;10.90;99.90
18444;DHT22;9350;53.176;8.194;2024-03-22T06:46:27;10.90;99.90
18444;DHT22;9350;53.176;8.194;2024-03-22T06:48:53;10.90;99.90
18444;DHT22;9350;53.176;8.194;2024-03-22T06:51:20;10.90;99.90
18444;DHT22;9350;53.176;8.194;2024-03-22T06:53:46;10.90;99.90
18444;DHT22;9350;53.176;8.194;2024-03-22T06:56:13;10.90;99.90
18444;DHT22;9350;53.176;8.194;2024-03-22T06:58:41;10.90;99.90
18444;DHT22;9350;53.176;8.194;2024-03-22T07:01:07;10.90;99.90
18444;DHT22;9350;53.176;8.194;2024-03-22T07:03:34;11.00;99.90
18444;DHT22;9350;53.176;8.194;2024-03-22T07:06:00;10.90;99.90
18444;DHT22;9350;53.176;8.194;2024-03-22T07:08:27;11.00;99.90
18444;DHT22;9350;53.176;8.194;2024-03-22T07:10:53;11.00;99.90
18444;DHT22;9350;53.176;8.194;2024-03-22T07:13:21;10.90;99.90
18444;DHT22;9350;53.176;8.194;2024-03-22T07:15:48;10.90;99.90
18444;DHT22;9350;53.176;8.194;2024-03-22T07:18:15;11.00;99.90
18444;DHT22;9350;53.176;8.194;2024-03-22T07:20:41;11.00;99.90
18444;DHT22;9350;53.176;8.194;2024-03-22T07:23:08;10.90;99.90
18444;DHT22;9350;53.176;8.194;2024-03-22T07:25:34;11.00;99.90
18444;DHT22;9350;53.176;8.194;2024-03-22T07:28:01;11.00;99.90
18444;DHT22;9350;53.176;8.194;2024-03-22T07:30:27;10.90;99.90
18444;DHT22;9350;53.176;8.194;2024-03-22T07:32:55;10.90;99.90
18444;DHT22;9350;53.176;8.194;2024-03-22T07:35:21;10.90;99.90
18444;DHT22;9350;53.176;8.194;2024-03-22T07:37:48;11.00;99.90
18444;DHT22;9350;53.176;8.194;2024-03-22T07:40:14;10.90;99.90
18444;DHT22;9350;53.176;8.194;2024-03-22T07:42:41;11.00;99.90
18444;DHT22;9350;53.176;8.194;2024-03-22T07:45:07;10.90;99.90
18444;DHT22;9350;53.176;8.194;2024-03-22T07:47:34;10.90;99.90
18444;DHT22;9350;53.176;8.194;2024-03-22T07:50:01;11.00;99.90
18444;DHT22;9350;53.176;8.194;2024-03-22T07:52:28;11.00;99.90
18444;DHT22;9350;53.176;8.194;2024-03-22T07:54:54;11.00;99.90
18444;DHT22;9350;53.176;8.194;2024-03-22T07:57:21;10.90;99.90
18444;DHT22;9350;53.176;8.194;2024-03-22T07:59:48;10.90;99.90
18444;DHT22;9350;53.176;8.194;2024-03-22T08:02:15;11.00;99.90
18444;DHT22;9350;53.176;8.194;2024-03-22T08:04:41;10.90;99.90
18444;DHT22;9350;53.176;8.194;2024-03-22T08:07:09;10.90;99.90
18444;DHT22;9350;53.176;8.194;2024-03-22T08:09:34;10.90;99.90
18444;DHT22;9350;53.176;8.194;2024-03-22T08:12:01;10.90;99.90
18444;DHT22;9350;53.176;8.194;2024-03-22T08:14:28;10.90;99.90
18444;DHT22;9350;53.176;8.194;2024-03-22T08:16:55;11.00;99.90
18444;DHT22;9350;53.176;8.194;2024-03-22T08:19:20;10.90;99.90
18444;DHT22;9350;53.176;8.194;2024-03-22T08:21:47;10.90;99.90
18444;DHT22;9350;53.176;8.194;2024-03-22T08:24:14;10.90;99.90
18444;DHT22;9350;53.176;8.194;2024-03-22T08:26:41;10.90;99.90
18444;DHT22;9350;53.176;8.194;2024-03-22T08:29:10;10.90;99.90
18444;DHT22;9350;53.176;8.194;2024-03-22T08:31:38;10.90;99.90
18444;DHT22;9350;53.176;8.194;2024-03-22T08:34:04;10.90;99.90
18444;DHT22;9350;53.176;8.194;2024-03-22T08:36:31;10.90;99.90
18444;DHT22;9350;53.176;8.194;2024-03-22T08:38:57;10.90;99.90
18444;DHT22;9350;53.176;8.194;2024-03-22T08:41:25;10.90;99.90
18444;DHT22;9350;53.176;8.194;2024-03-22T08:43:50;10.80;99.90
18444;DHT22;9350;53.176;8.194;2024-03-22T08:46:17;10.90;99.90
18444;DHT22;9350;53.176;8.194;2024-03-22T08:48:43;10.90;99.90
18444;DHT22;9350;53.176;8.194;2024-03-22T08:51:10;10.90;99.90
18444;DHT22;9350;53.176;8.194;2024-03-22T08:53:35;10.90;99.90
18444;DHT22;9350;53.176;8.194;2024-03-22T08:56:03;10.90;99.90
18444;DHT22;9350;53.176;8.194;2024-03-22T08:58:30;10.90;99.90
18444;DHT22;9350;53.176;8.194;2024-03-22T09:00:57;10.90;99.90
18444;DHT22;9350;53.176;8.194;2024-03-22T09:03:23;11.00;99.90
18444;DHT22;9350;53.176;8.194;2024-03-22T09:05:52;11.00;99.90
18444;DHT22;9350;53.176;8.194;2024-03-22T09:08:18;10.90;99.90
18444;DHT22;9350;53.176;8.194;2024-03-22T09:10:45;11.00;99.90
18444;DHT22;9350;53.176;8.194;2024-03-22T09:13:10;11.00;99.90
18444;DHT22;9350;53.176;8.194;2024-03-22T09:15:39;11.00;99.90
18444;DHT22;9350;53.176;8.194;2024-03-22T09:18:06;11.00;99.90
18444;DHT22;9350;53.176;8.194;2024-03-22T09:20:32;10.90;99.90
18444;DHT22;9350;53.176;8.194;2024-03-22T09:22:59;11.00;99.90
18444;DHT22;9350;53.176;8.194;2024-03-22T09:25:25;11.00;99.90
18444;DHT22;9350;53.176;8.194;2024-03-22T09:27:51;11.00;99.90
18444;DHT22;9350;53.176;8.194;2024-03-22T09:30:17;11.00;99.90
18444;DHT22;9350;53.176;8.194;2024-03-22T09:32:46;11.00;99.90
18444;DHT22;9350;53.176;8.194;2024-03-22T09:35:11;10.90;99.90
18444;DHT22;9350;53.176;8.194;2024-03-22T09:37:40;11.00;99.90
18444;DHT22;9350;53.176;8.194;2024-03-22T09:40:07;10.90;99.90
18444;DHT22;9350;53.176;8.194;2024-03-22T09:42:37;11.00;99.90
18444;DHT22;9350;53.176;8.194;2024-03-22T09:45:08;11.00;99.90
18444;DHT22;9350;53.176;8.194;2024-03-22T09:47:36;11.10;99.90
18444;DHT22;9350;53.176;8.194;2024-03-22T09:50:07;11.10;99.90
18444;DHT22;9350;53.176;8.194;2024-03-22T09:52:35;11.00;99.90
18444;DHT22;9350;53.176;8.194;2024-03-22T09:55:04;11.00;99.90
18444;DHT22;9350;53.176;8.194;2024-03-22T09:57:31;11.10;99.90
18444;DHT22;9350;53.176;8.194;2024-03-22T09:59:59;11.00;99.90
18444;DHT22;9350;53.176;8.194;2024-03-22T10:02:26;11.00;99.90
18444;DHT22;9350;53.176;8.194;2024-03-22T10:04:52;11.00;99.90
18444;DHT22;9350;53.176;8.194;2024-03-22T10:07:20;11.00;99.90
18444;DHT22;9350;53.176;8.194;2024-03-22T10:09:46;11.00;99.90
18444;DHT22;9350;53.176;8.194;2024-03-22T10:12:13;11.00;99.90
18444;DHT22;9350;53.176;8.194;2024-03-22T10:14:38;10.90;99.90
18444;DHT22;9350;53.176;8.194;2024-03-22T10:17:09;11.10;99.90
18444;DHT22;9350;53.176;8.194;2024-03-22T10:19:35;11.00;99.90
18444;DHT22;9350;53.176;8.194;2024-03-22T10:22:03;11.00;99.90
18444;DHT22;9350;53.176;8.194;2024-03-22T10:24:31;11.00;99.90
18444;DHT22;9350;53.176;8.194;2024-03-22T10:26:58;11.00;99.90
18444;DHT22;9350;53.176;8.194;2024-03-22T10:29:24;11.00;99.90
18444;DHT22;9350;53.176;8.194;2024-03-22T10:31:53;11.00;99.90
18444;DHT22;9350;53.176;8.194;2024-03-22T10:34:20;11.00;99.90
18444;DHT22;9350;53.176;8.194;2024-03-22T10:36:48;11.10;99.90
18444;DHT22;9350;53.176;8.194;2024-03-22T10:39:18;11.00;99.90
18444;DHT22;9350;53.176;8.194;2024-03-22T10:41:48;11.00;99.90
18444;DHT22;9350;53.176;8.194;2024-03-22T10:44:14;11.00;99.90
18444;DHT22;9350;53.176;8.194;2024-03-22T10:46:44;11.00;99.90
18444;DHT22;9350;53.176;8.194;2024-03-22T10:49:14;11.00;99.90
18444;DHT22;9350;53.176;8.194;2024-03-22T10:51:43;11.00;99.90
18444;DHT22;9350;53.176;8.194;2024-03-22T10:54:10;11.00;99.90
18444;DHT22;9350;53.176;8.194;2024-03-22T10:56:40;11.00;99.90
18444;DHT22;9350;53.176;8.194;2024-03-22T10:59:08;11.00;99.90
18444;DHT22;9350;53.176;8.194;2024-03-22T11:01:34;11.00;99.90
18444;DHT22;9350;53.176;8.194;2024-03-22T11:04:05;11.00;99.90
18444;DHT22;9350;53.176;8.194;2024-03-22T11:06:36;11.00;99.90
18444;DHT22;9350;53.176;8.194;2024-03-22T11:09:02;11.00;99.90
18444;DHT22;9350;53.176;8.194;2024-03-22T11:11:30;11.10;99.90
18444;DHT22;9350;53.176;8.194;2024-03-22T11:13:57;11.10;99.90
18444;DHT22;9350;53.176;8.194;2024-03-22T11:16:25;11.10;99.90
18444;DHT22;9350;53.176;8.194;2024-03-22T11:18:51;11.10;99.90
18444;DHT22;9350;53.176;8.194;2024-03-22T11:21:18;11.10;99.90
18444;DHT22;9350;53.176;8.194;2024-03-22T11:23:45;11.10;99.90
18444;DHT22;9350;53.176;8.194;2024-03-22T11:26:12;11.10;99.90
18444;DHT22;9350;53.176;8.194;2024-03-22T11:28:38;11.20;99.90
18444;DHT22;9350;53.176;8.194;2024-03-22T11:31:05;11.20;99.90
18444;DHT22;9350;53.176;8.194;2024-03-22T11:33:33;11.20;99.90
18444;DHT22;9350;53.176;8.194;2024-03-22T11:35:59;11.20;99.90
18444;DHT22;9350;53.176;8.194;2024-03-22T11:38:26;11.20;99.90
18444;DHT22;9350;53.176;8.194;2024-03-22T11:40:55;11.10;99.90
18444;DHT22;9350;53.176;8.194;2024-03-22T11:43:21;11.10;99.90
18444;DHT22;9350;53.176;8.194;2024-03-22T11:45:48;11.20;99.90
18444;DHT22;9350;53.176;8.194;2024-03-22T11:48:14;11.10;99.90
18444;DHT22;9350;53.176;8.194;2024-03-22T11:50:43;11.10;99.90
18444;DHT22;9350;53.176;8.194;2024-03-22T11:53:09;11.20;99.90
18444;DHT22;9350;53.176;8.194;2024-03-22T11:55:36;11.20;99.90
18444;DHT22;9350;53.176;8.194;2024-03-22T11:58:01;11.10;99.90
18444;DHT22;9350;53.176;8.194;2024-03-22T12:00:28;11.20;99.90
18444;DHT22;9350;53.176;8.194;2024-03-22T12:02:54;11.20;99.90
18444;DHT22;9350;53.176;8.194;2024-03-22T12:05:21;11.20;99.90
18444;DHT22;9350;53.176;8.194;2024-03-22T12:07:50;11.20;99.90
18444;DHT22;9350;53.176;8.194;2024-03-22T12:10:17;11.20;99.90
18444;DHT22;9350;53.176;8.194;2024-03-22T12:12:43;11.20;99.90
18444;DHT22;9350;53.176;8.194;2024-03-22T12:15:10;11.30;99.90
18444;DHT22;9350;53.176;8.194;2024-03-22T12:17:36;11.30;99.90
18444;DHT22;9350;53.176;8.194;2024-03-22T12:20:06;11.30;99.90
18444;DHT22;9350;53.176;8.194;2024-03-22T12:22:34;11.40;99.90
18444;DHT22;9350;53.176;8.194;2024-03-22T12:25:02;11.30;99.90
18444;DHT22;9350;53.176;8.194;2024-03-22T12:27:30;11.30;99.90
18444;DHT22;9350;53.176;8.194;2024-03-22T12:29:56;11.30;99.90
18444;DHT22;9350;53.176;8.194;2024-03-22T12:32:22;11.30;99.90
18444;DHT22;9350;53.176;8.194;2024-03-22T12:34:49;11.30;99.90
18444;DHT22;9350;53.176;8.194;2024-03-22T12:37:15;11.30;99.90
18444;DHT22;9350;53.176;8.194;2024-03-22T12:39:41;11.30;99.90
18444;DHT22;9350;53.176;8.194;2024-03-22T12:42:09;11.30;99.90
18444;DHT22;9350;53.176;8.194;2024-03-22T12:44:35;11.20;99.90
18444;DHT22;9350;53.176;8.194;2024-03-22T12:47:01;11.30;99.90
18444;DHT22;9350;53.176;8.194;2024-03-22T12:49:29;11.20;99.90
18444;DHT22;9350;53.176;8.194;2024-03-22T12:51:55;11.30;99.90
18444;DHT22;9350;53.176;8.194;2024-03-22T12:54:22;11.30;99.90
18444;DHT22;9350;53.176;8.194;2024-03-22T12:56:48;11.30;99.90
18444;DHT22;9350;53.176;8.194;2024-03-22T12:59:16;11.30;99.90
18444;DHT22;9350;53.176;8.194;2024-03-22T13:01:42;11.20;99.90
18444;DHT22;9350;53.176;8.194;2024-03-22T13:04:09;11.40;99.90
18444;DHT22;9350;53.176;8.194;2024-03-22T13:06:35;11.40;99.90
18444;DHT22;9350;53.176;8.194;2024-03-22T13:09:02;11.40;99.90
18444;DHT22;9350;53.176;8.194;2024-03-22T13:11:30;11.30;99.90
18444;DHT22;9350;53.176;8.194;2024-03-22T13:13:57;11.30;99.90
18444;DHT22;9350;53.176;8.194;2024-03-22T13:16:24;11.30;99.90
18444;DHT22;9350;53.176;8.194;2024-03-22T13:18:51;11.30;99.90
18444;DHT22;9350;53.176;8.194;2024-03-22T13:21:17;11.40;99.90
18444;DHT22;9350;53.176;8.194;2024-03-22T13:23:44;11.40;99.90
18444;DHT22;9350;53.176;8.194;2024-03-22T13:26:10;11.40;99.90
18444;DHT22;9350;53.176;8.194;2024-03-22T13:28:37;11.30;99.90
18444;DHT22;9350;53.176;8.194;2024-03-22T13:31:04;11.30;99.90
18444;DHT22;9350;53.176;8.194;2024-03-22T13:33:34;11.40;99.90
18444;DHT22;9350;53.176;8.194;2024-03-22T13:36:00;11.30;99.90
18444;DHT22;9350;53.176;8.194;2024-03-22T13:38:27;11.30;99.90
18444;DHT22;9350;53.176;8.194;2024-03-22T13:40:54;11.30;99.90
18444;DHT22;9350;53.176;8.194;2024-03-22T13:43:21;11.20;99.90
18444;DHT22;9350;53.176;8.194;2024-03-22T13:45:50;11.30;99.90
18444;DHT22;9350;53.176;8.194;2024-03-22T13:48:20;11.30;99.90
18444;DHT22;9350;53.176;8.194;2024-03-22T13:50:51;11.20;99.90
18444;DHT22;9350;53.176;8.194;2024-03-22T13:53:17;11.20;99.90
18444;DHT22;9350;53.176;8.194;2024-03-22T13:55:44;11.30;99.90
18444;DHT22;9350;53.176;8.194;2024-03-22T13:58:11;11.20;99.90
18444;DHT22;9350;53.176;8.194;2024-03-22T14:00:38;11.10;99.90
18444;DHT22;9350;53.176;8.194;2024-03-22T14:03:05;11.10;99.90
18444;DHT22;9350;53.176;8.194;2024-03-22T14:05:32;11.20;99.90
18444;DHT22;9350;53.176;8.194;2024-03-22T14:07:59;11.20;99.90
18444;DHT22;9350;53.176;8.194;2024-03-22T14:10:26;11.10;99.90
18444;DHT22;9350;53.176;8.194;2024-03-22T14:12:53;11.10;99.90
18444;DHT22;9350;53.176;8.194;2024-03-22T14:15:20;11.00;99.90
18444;DHT22;9350;53.176;8.194;2024-03-22T14:17:46;11.00;99.90
18444;DHT22;9350;53.176;8.194;2024-03-22T14:20:13;11.00;99.90
18444;DHT22;9350;53.176;8.194;2024-03-22T14:22:39;11.00;99.90
18444;DHT22;9350;53.176;8.194;2024-03-22T14:25:08;11.00;99.90
18444;DHT22;9350;53.176;8.194;2024-03-22T14:27:34;10.80;99.90
18444;DHT22;9350;53.176;8.194;2024-03-22T14:30:01;10.80;99.90
18444;DHT22;9350;53.176;8.194;2024-03-22T14:32:30;10.60;99.90
18444;DHT22;9350;53.176;8.194;2024-03-22T14:34:57;10.70;99.90
18444;DHT22;9350;53.176;8.194;2024-03-22T14:37:23;10.60;99.90
18444;DHT22;9350;53.176;8.194;2024-03-22T14:39:50;10.60;99.90
18444;DHT22;9350;53.176;8.194;2024-03-22T14:42:17;10.60;99.90
18444;DHT22;9350;53.176;8.194;2024-03-22T14:44:44;10.70;99.90
18444;DHT22;9350;53.176;8.194;2024-03-22T14:47:10;10.70;99.90
18444;DHT22;9350;53.176;8.194;2024-03-22T14:49:36;10.70;99.90
18444;DHT22;9350;53.176;8.194;2024-03-22T14:52:02;10.70;99.90
18444;DHT22;9350;53.176;8.194;2024-03-22T14:54:29;10.70;99.90
18444;DHT22;9350;53.176;8.194;2024-03-22T14:56:56;10.70;99.90
18444;DHT22;9350;53.176;8.194;2024-03-22T14:59:27;10.70;99.90
18444;DHT22;9350;53.176;8.194;2024-03-22T15:01:53;10.70;99.90
18444;DHT22;9350;53.176;8.194;2024-03-22T15:04:20;10.70;99.90
18444;DHT22;9350;53.176;8.194;2024-03-22T15:06:46;10.70;99.90
18444;DHT22;9350;53.176;8.194;2024-03-22T15:09:16;10.70;99.90
18444;DHT22;9350;53.176;8.194;2024-03-22T15:11:43;10.60;99.90
18444;DHT22;9350;53.176;8.194;2024-03-22T15:14:10;10.60;99.90
18444;DHT22;9350;53.176;8.194;2024-03-22T15:16:37;10.60;99.90
18444;DHT22;9350;53.176;8.194;2024-03-22T15:19:04;10.60;99.90
18444;DHT22;9350;53.176;8.194;2024-03-22T15:21:30;10.70;99.90
18444;DHT22;9350;53.176;8.194;2024-03-22T15:23:57;10.60;99.90
18444;DHT22;9350;53.176;8.194;2024-03-22T15:26:22;10.60;99.90
18444;DHT22;9350;53.176;8.194;2024-03-22T15:28:49;10.50;99.90
18444;DHT22;9350;53.176;8.194;2024-03-22T15:31:15;10.70;99.90
18444;DHT22;9350;53.176;8.194;2024-03-22T15:33:43;10.70;99.90
18444;DHT22;9350;53.176;8.194;2024-03-22T15:36:09;10.60;99.90
18444;DHT22;9350;53.176;8.194;2024-03-22T15:38:36;10.60;99.90
18444;DHT22;9350;53.176;8.194;2024-03-22T15:41:02;10.70;99.90